Time;durP1;ratioP1;P1;durP2;ratioP2;P2;SDS_P1;SDS_P2;PMS_P1;PMS_P2;Temp;Humidity;BMP_temperature;BMP_pressure;BME280_temperature;BME280_humidity;BME280_pressure;Samples;Min_cycle;Max_cycle;Signal;HPM_P1;HPM_P2
2023/07/29 00:00:06;;;;;;;4.82;3.55;;;;;;;15.75;98.12;98342.63;4952501;28;20057;-67
2023/07/29 00:02:38;;;;;;;7.97;4.13;;;;;;;15.78;98.11;98368.31;4942269;28;20059;-70
2023/07/29 00:05:04;;;;;;;6.43;4.60;;;;;;;15.80;98.00;98334.06;4952203;28;20042;-69
2023/07/29 00:07:29;;;;;;;6.60;4.32;;;;;;;15.82;98.26;98332.00;4939271;28;20050;-70
2023/07/29 00:12:49;;;;;;;8.73;4.35;;;;;;;15.86;98.00;98362.91;4955575;28;20050;-70
2023/07/29 00:15:14;;;;;;;4.95;3.78;;;;;;;15.86;98.02;98374.50;4957426;28;20042;-70
2023/07/29 00:17:39;;;;;;;12.35;4.18;;;;;;;15.85;97.89;98380.03;4940392;28;20050;-68
2023/07/29 00:20:30;;;;;;;7.50;3.95;;;;;;;15.87;97.54;98378.03;4954903;28;20054;-67
2023/07/29 00:22:55;;;;;;;6.45;4.43;;;;;;;15.88;97.59;98375.16;4956208;28;20046;-66
2023/07/29 00:25:50;;;;;;;5.35;4.15;;;;;;;16.01;97.43;98368.38;4939157;28;20049;-69
2023/07/29 00:28:40;;;;;;;9.25;5.45;;;;;;;15.95;97.02;98353.78;4952416;28;20923;-74
2023/07/29 00:31:33;;;;;;;7.72;4.35;;;;;;;15.97;97.33;98352.59;5030121;23;20527;-76
2023/07/29 00:33:58;;;;;;;7.97;4.70;;;;;;;15.97;97.15;98352.59;4968595;28;20045;-75
2023/07/29 00:36:24;;;;;;;9.65;4.78;;;;;;;15.99;96.88;98363.19;4978687;28;20053;-74
2023/07/29 00:38:52;;;;;;;11.18;4.65;;;;;;;15.97;96.67;98351.75;4962715;28;20053;-72
2023/07/29 00:41:21;;;;;;;9.95;4.75;;;;;;;15.97;96.89;98352.59;4991467;28;20737;-72
2023/07/29 00:43:48;;;;;;;10.93;5.53;;;;;;;15.96;96.88;98348.25;4976224;28;20053;-72
2023/07/29 00:46:14;;;;;;;6.50;4.53;;;;;;;15.93;96.48;98356.66;4959235;28;20044;-74
2023/07/29 00:48:39;;;;;;;6.38;4.03;;;;;;;15.94;96.17;98347.56;4966194;28;20050;-74
2023/07/29 00:51:06;;;;;;;4.93;3.70;;;;;;;15.92;96.25;98370.25;4995957;28;20045;-75
2023/07/29 00:53:36;;;;;;;10.80;4.20;;;;;;;15.94;95.69;98333.28;4981116;28;20050;-77
2023/07/29 00:56:06;;;;;;;4.95;3.85;;;;;;;15.88;95.51;98328.63;4965587;28;20045;-77
2023/07/29 00:58:31;;;;;;;4.28;3.50;;;;;;;15.88;95.08;98324.09;4963428;28;20045;-73
2023/07/29 01:00:57;;;;;;;4.32;3.72;;;;;;;15.87;94.84;98325.09;4958241;28;20045;-73
2023/07/29 01:03:23;;;;;;;5.20;3.83;;;;;;;15.86;94.94;98333.34;4975614;28;20048;-72
2023/07/29 01:06:02;;;;;;;8.20;3.65;;;;;;;15.88;94.61;98342.91;4942099;28;20042;-72
2023/07/29 01:09:03;;;;;;;5.68;3.88;;;;;;;15.95;94.74;98353.78;4958101;28;20049;-71
2023/07/29 01:11:45;;;;;;;5.05;3.95;;;;;;;15.92;94.68;98328.09;4947367;28;20045;-73
2023/07/29 01:14:29;;;;;;;6.63;4.35;;;;;;;15.91;94.37;98328.28;4975582;28;20057;-77
2023/07/29 01:17:03;;;;;;;7.90;5.55;;;;;;;15.83;94.58;98313.03;4975910;28;20041;-76
2023/07/29 01:19:42;;;;;;;7.45;4.03;;;;;;;15.88;94.54;98307.13;4958114;28;20060;-77
2023/07/29 01:22:12;;;;;;;9.15;4.80;;;;;;;15.80;94.55;98304.50;4965581;28;20244;-77
2023/07/29 01:24:39;;;;;;;5.38;4.07;;;;;;;15.80;94.67;98291.06;4957425;28;20041;-76
2023/07/29 01:27:06;;;;;;;4.68;3.85;;;;;;;15.77;94.68;98323.66;4970471;28;20030;-77
2023/07/29 01:29:57;;;;;;;5.00;3.78;;;;;;;15.84;94.46;98298.56;4950408;28;20053;-75
2023/07/29 01:32:35;;;;;;;7.75;4.28;;;;;;;15.76;94.57;98305.84;4941369;28;20602;-77
2023/07/29 01:35:36;;;;;;;6.63;4.60;;;;;;;15.75;94.82;98310.38;4956855;28;20046;-79
2023/07/29 01:38:17;;;;;;;6.95;4.32;;;;;;;15.70;95.17;98318.09;4912623;28;20047;-77
2023/07/29 01:40:44;;;;;;;6.22;4.57;;;;;;;15.67;94.98;98306.91;4932437;28;20551;-77
2023/07/29 01:43:12;;;;;;;8.35;4.53;;;;;;;15.64;94.94;98316.13;4923202;28;20061;-77
2023/07/29 01:45:39;;;;;;;8.88;4.90;;;;;;;15.60;95.00;98302.19;4930835;28;20045;-75
2023/07/29 01:48:06;;;;;;;5.15;4.28;;;;;;;15.62;94.72;98310.09;4923415;28;20078;-77
2023/07/29 01:50:34;;;;;;;6.82;4.30;;;;;;;15.60;94.94;98299.50;4930325;28;20057;-75
2023/07/29 01:53:03;;;;;;;5.93;4.57;;;;;;;15.63;94.86;98305.56;4952630;28;20049;-75
2023/07/29 01:55:31;;;;;;;5.78;4.28;;;;;;;15.59;94.78;98299.69;4957140;28;20528;-75
2023/07/29 01:57:58;;;;;;;6.15;4.50;;;;;;;15.59;94.79;98302.38;4939352;28;20408;-77
2023/07/29 02:00:24;;;;;;;7.38;4.43;;;;;;;15.61;95.02;98300.34;4923060;28;20057;-76
2023/07/29 02:02:49;;;;;;;6.15;4.40;;;;;;;15.63;95.02;98305.56;4951408;28;20054;-77
2023/07/29 02:05:15;;;;;;;8.88;4.35;;;;;;;15.65;95.23;98296.31;4940486;28;20041;-77
2023/07/29 02:07:40;;;;;;;5.80;4.43;;;;;;;15.66;95.06;98306.06;4921220;28;20058;-76
2023/07/29 02:10:07;;;;;;;5.53;4.40;;;;;;;15.66;94.84;98311.44;4943284;28;20046;-81
2023/07/29 02:12:37;;;;;;;5.65;4.50;;;;;;;15.69;94.86;98332.56;4943565;28;20053;-77
2023/07/29 02:15:09;;;;;;;7.53;3.97;;;;;;;15.69;95.00;98337.94;4960545;28;20038;-77
2023/07/29 02:17:36;;;;;;;6.15;4.53;;;;;;;15.70;94.58;98346.81;4926207;28;20046;-77
2023/07/29 02:20:05;;;;;;;6.55;4.07;;;;;;;15.70;94.67;98361.09;4944045;28;20050;-77
2023/07/29 02:22:30;;;;;;;7.38;4.95;;;;;;;15.73;94.56;98344.63;4944200;28;20046;-77
2023/07/29 02:24:55;;;;;;;9.52;5.22;;;;;;;15.72;94.82;98364.47;4927380;28;20512;-73
2023/07/29 02:27:21;;;;;;;6.65;4.05;;;;;;;15.73;94.93;98358.06;4943142;28;20030;-71
2023/07/29 02:29:48;;;;;;;6.88;4.55;;;;;;;15.71;94.87;98348.50;4946001;28;20070;-74
2023/07/29 02:32:14;;;;;;;7.90;4.65;;;;;;;15.69;94.67;98370.16;4978505;28;20048;-78
2023/07/29 02:34:42;;;;;;;6.35;4.30;;;;;;;15.66;94.87;98362.47;4946038;28;20080;-76
2023/07/29 02:37:07;;;;;;;9.77;4.25;;;;;;;15.66;94.97;98358.94;4938748;28;20423;-73
2023/07/29 02:39:35;;;;;;;10.63;4.43;;;;;;;15.64;95.03;98352.91;4980118;28;20045;-72
2023/07/29 02:42:01;;;;;;;5.63;4.35;;;;;;;15.63;95.16;98364.66;4963451;28;20046;-70
2023/07/29 02:44:29;;;;;;;6.68;4.80;;;;;;;15.60;95.22;98347.88;4956192;28;20050;-71
2023/07/29 02:46:56;;;;;;;7.03;4.80;;;;;;;15.60;95.52;98349.72;4960262;28;20041;-73
2023/07/29 02:49:22;;;;;;;9.48;5.78;;;;;;;15.59;95.83;98342.66;4961176;28;20038;-72
2023/07/29 02:51:47;;;;;;;6.05;4.75;;;;;;;15.58;95.79;98324.88;4960816;28;20053;-73
2023/07/29 02:55:03;;;;;;;7.32;5.40;;;;;;;15.59;95.94;98329.22;4978607;28;20053;-72
2023/07/29 02:57:29;;;;;;;10.57;4.85;;;;;;;15.57;95.88;98324.06;4978188;28;20401;-71
2023/07/29 02:59:54;;;;;;;5.05;4.30;;;;;;;15.56;96.24;98325.06;4960879;28;20037;-71
2023/07/29 03:02:20;;;;;;;7.65;4.40;;;;;;;15.56;96.25;98333.13;4977004;28;20715;-71
2023/07/29 03:04:48;;;;;;;6.22;4.72;;;;;;;15.57;96.30;98321.38;4962158;28;20523;-72
2023/07/29 03:07:13;;;;;;;6.55;4.38;;;;;;;15.57;96.20;98310.63;4957339;28;20042;-72
2023/07/29 03:09:41;;;;;;;10.70;5.35;;;;;;;15.56;96.11;98332.28;4957842;28;20501;-69
2023/07/29 03:12:09;;;;;;;8.02;4.15;;;;;;;15.57;96.06;98323.22;4965464;28;20042;-72
2023/07/29 03:14:34;;;;;;;7.03;5.22;;;;;;;15.55;95.93;98301.91;4974541;28;20054;-78
2023/07/29 03:17:04;;;;;;;5.60;4.80;;;;;;;15.50;95.47;98301.53;4969821;28;20061;-74
2023/07/29 03:19:55;;;;;;;6.53;4.38;;;;;;;15.52;95.09;98287.94;4943917;28;20065;-72
2023/07/29 03:22:22;;;;;;;5.63;4.60;;;;;;;15.42;95.07;98309.63;4960436;28;20045;-74
2023/07/29 03:24:48;;;;;;;7.35;4.70;;;;;;;15.42;95.42;98320.38;4977657;28;20054;-72
2023/07/29 03:27:15;;;;;;;11.38;5.68;;;;;;;15.39;95.47;98309.13;4960412;28;20500;-72
2023/07/29 03:29:41;;;;;;;7.18;4.93;;;;;;;15.39;95.41;98293.03;4977191;28;20045;-71
2023/07/29 03:32:06;;;;;;;8.77;5.20;;;;;;;15.39;95.79;98293.84;4977372;28;20046;-71
2023/07/29 03:34:33;;;;;;;8.73;5.10;;;;;;;15.41;95.78;98291.00;4973586;28;20045;-71
2023/07/29 03:37:01;;;;;;;6.32;4.88;;;;;;;15.44;95.83;98307.63;4959373;28;20050;-72
2023/07/29 03:39:31;;;;;;;6.03;4.95;;;;;;;15.48;96.14;98281.22;4943164;28;20500;-71
2023/07/29 03:41:58;;;;;;;8.70;4.80;;;;;;;15.54;96.02;98276.06;4977067;28;20044;-71
2023/07/29 03:44:25;;;;;;;7.35;4.55;;;;;;;15.56;96.46;98295.53;4943707;28;20046;-71
2023/07/29 03:46:50;;;;;;;9.40;5.57;;;;;;;15.65;96.57;98266.75;4959441;28;20045;-71
2023/07/29 03:49:17;;;;;;;8.52;5.45;;;;;;;15.69;96.19;98288.75;4976873;28;20523;-73
2023/07/29 03:51:42;;;;;;;10.38;5.75;;;;;;;15.73;96.50;98273.94;4961008;28;20042;-71
2023/07/29 03:54:08;;;;;;;8.02;4.93;;;;;;;15.76;96.33;98278.97;4942575;28;20057;-73
2023/07/29 03:56:35;;;;;;;6.88;5.43;;;;;;;15.78;96.02;98276.94;4956302;28;20050;-71
2023/07/29 03:59:05;;;;;;;7.15;5.50;;;;;;;15.83;96.16;98274.56;4940489;28;20523;-72
2023/07/29 04:01:32;;;;;;;5.78;4.22;;;;;;;15.85;95.90;98257.25;4960905;28;20049;-72
2023/07/29 04:04:22;;;;;;;8.00;5.32;;;;;;;15.89;95.70;98258.59;4977144;28;20041;-72
2023/07/29 04:06:48;;;;;;;6.95;5.45;;;;;;;15.90;95.88;98254.03;4959547;28;20046;-71
2023/07/29 04:09:13;;;;;;;7.78;5.80;;;;;;;15.91;95.56;98261.09;4960176;28;20049;-72
2023/07/29 04:11:39;;;;;;;8.15;5.60;;;;;;;15.94;95.79;98252.66;4960793;28;20057;-72
2023/07/29 04:14:05;;;;;;;8.70;5.57;;;;;;;15.94;95.37;98250.81;4958919;28;20053;-71
2023/07/29 04:16:30;;;;;;;8.80;5.65;;;;;;;15.94;95.41;98250.81;4958685;28;20540;-72
2023/07/29 04:18:56;;;;;;;8.57;6.18;;;;;;;15.95;95.22;98246.28;4976732;28;20046;-72
2023/07/29 04:21:23;;;;;;;7.25;5.47;;;;;;;15.96;95.55;98242.56;4958545;28;20061;-71
2023/07/29 04:23:48;;;;;;;7.78;5.72;;;;;;;15.98;95.45;98251.31;4975710;28;20038;-70
2023/07/29 04:26:14;;;;;;;8.52;5.38;;;;;;;16.01;95.19;98250.13;4975628;28;20046;-72
2023/07/29 04:28:39;;;;;;;9.50;5.60;;;;;;;16.03;95.03;98253.47;4976715;28;20396;-71
2023/07/29 04:31:05;;;;;;;7.57;5.57;;;;;;;16.03;94.99;98254.28;4941808;28;20060;-71
2023/07/29 04:33:32;;;;;;;10.27;5.20;;;;;;;16.05;95.29;98273.75;4942492;28;20045;-70
2023/07/29 04:35:58;;;;;;;11.35;5.43;;;;;;;16.06;95.08;98240.47;4943364;28;20053;-71
2023/07/29 04:38:31;;;;;;;6.20;5.55;;;;;;;16.10;94.78;98259.78;4959107;28;20049;-72
2023/07/29 04:40:56;;;;;;;7.13;5.82;;;;;;;16.10;94.88;98247.19;4959149;28;20496;-72
2023/07/29 04:43:22;;;;;;;7.18;5.07;;;;;;;16.11;94.43;98253.41;4958939;28;20041;-70
2023/07/29 04:45:48;;;;;;;8.07;4.95;;;;;;;16.09;94.51;98275.09;4976620;28;20459;-72
2023/07/29 04:48:17;;;;;;;6.65;5.18;;;;;;;16.11;93.96;98262.31;4958882;28;20038;-72
2023/07/29 04:50:42;;;;;;;7.35;5.45;;;;;;;16.12;93.87;98263.16;4958775;28;20496;-71
2023/07/29 04:53:11;;;;;;;6.97;5.38;;;;;;;16.11;94.03;98278.44;4959140;28;20050;-71
2023/07/29 04:55:38;;;;;;;8.73;5.85;;;;;;;16.13;93.86;98260.28;4958606;28;20058;-72
2023/07/29 04:58:03;;;;;;;6.97;5.40;;;;;;;16.12;93.87;98263.16;4958714;28;20041;-72
2023/07/29 05:00:29;;;;;;;7.30;5.43;;;;;;;16.14;93.72;98250.38;4976322;28;20052;-72
2023/07/29 05:02:54;;;;;;;6.57;5.18;;;;;;;16.16;93.88;98243.78;4958678;28;20049;-72
2023/07/29 05:05:19;;;;;;;6.45;5.38;;;;;;;16.20;93.66;98239.72;4941965;28;20050;-71
2023/07/29 05:07:46;;;;;;;5.88;4.70;;;;;;;16.24;93.75;98254.50;4958703;28;20049;-70
2023/07/29 05:10:12;;;;;;;10.10;4.97;;;;;;;16.28;93.71;98247.72;4958224;28;20500;-72
2023/07/29 05:12:38;;;;;;;9.52;5.43;;;;;;;16.30;93.17;98251.06;4975912;28;20381;-72
2023/07/29 05:15:06;;;;;;;6.43;4.88;;;;;;;16.32;93.01;98265.19;4958693;28;20049;-72
2023/07/29 05:17:31;;;;;;;8.55;5.10;;;;;;;16.36;92.73;98238.78;4975799;28;20042;-73
2023/07/29 05:19:59;;;;;;;6.95;4.63;;;;;;;16.37;92.73;98237.72;4958270;28;20050;-71
2023/07/29 05:22:24;;;;;;;6.65;4.28;;;;;;;16.39;92.58;98233.00;4957949;28;20046;-73
2023/07/29 05:24:50;;;;;;;5.95;4.80;;;;;;;16.43;92.13;98230.81;4958281;28;20397;-72
2023/07/29 05:27:16;;;;;;;8.25;5.20;;;;;;;16.48;92.21;98231.09;4942484;28;20121;-72
2023/07/29 05:29:42;;;;;;;5.68;4.30;;;;;;;16.51;92.03;98225.34;4974136;28;20054;-71
2023/07/29 05:32:08;;;;;;;7.75;4.55;;;;;;;16.54;91.31;98223.13;4974498;28;20400;-71
2023/07/29 05:34:33;;;;;;;8.80;5.03;;;;;;;16.55;91.34;98232.88;4977480;28;20041;-72
2023/07/29 05:36:58;;;;;;;5.07;4.13;;;;;;;16.59;90.89;98236.06;4974275;28;20404;-72
2023/07/29 05:39:24;;;;;;;8.57;4.63;;;;;;;16.58;91.00;98224.47;4975726;28;20052;-70
2023/07/29 05:41:51;;;;;;;5.68;4.55;;;;;;;16.57;90.46;98246.16;4974750;28;20065;-72
2023/07/29 05:44:18;;;;;;;6.53;4.90;;;;;;;16.58;90.48;98227.16;4977286;28;20057;-72
2023/07/29 05:49:35;;;;;;;8.43;5.25;;;;;;;16.57;90.03;98224.63;4997952;28;20081;-71
2023/07/29 05:52:00;;;;;;;5.85;4.93;;;;;;;16.55;90.14;98232.88;4961598;28;20477;-71
2023/07/29 05:54:26;;;;;;;5.70;4.70;;;;;;;16.56;89.91;98234.56;4975608;28;20042;-74
2023/07/29 05:56:51;;;;;;;5.35;4.75;;;;;;;16.59;90.09;98244.13;4942532;28;20061;-73
2023/07/29 05:59:17;;;;;;;6.32;4.93;;;;;;;16.62;89.88;98271.53;4975946;28;20412;-70
2023/07/29 06:01:42;;;;;;;5.88;4.82;;;;;;;16.68;90.14;98243.06;4972674;28;20088;-69
2023/07/29 06:04:09;;;;;;;6.63;4.55;;;;;;;16.73;89.93;98237.13;4972292;28;20046;-68
2023/07/29 06:06:34;;;;;;;6.20;4.65;;;;;;;16.75;89.59;98254.75;4990697;28;20042;-69
2023/07/29 06:09:00;;;;;;;6.60;4.35;;;;;;;16.83;89.77;98246.59;4941850;28;20045;-70
2023/07/29 06:11:26;;;;;;;4.97;4.20;;;;;;;16.84;89.05;98248.28;4975231;28;20161;-69
2023/07/29 06:13:54;;;;;;;6.88;4.28;;;;;;;16.85;88.95;98266.09;4957941;28;20041;-69
2023/07/29 06:16:20;;;;;;;7.05;4.65;;;;;;;16.88;88.96;98256.81;4975268;28;20060;-69
2023/07/29 06:18:46;;;;;;;7.18;4.28;;;;;;;16.89;88.60;98272.81;4973867;28;20042;-69
2023/07/29 06:21:16;;;;;;;4.85;4.30;;;;;;;16.92;88.53;98263.53;4975208;28;20048;-70
2023/07/29 06:23:44;;;;;;;6.32;4.53;;;;;;;16.95;88.43;98288.22;4941529;28;20155;-71
2023/07/29 06:26:10;;;;;;;6.97;4.88;;;;;;;16.99;88.23;98268.00;4975237;28;20057;-70
2023/07/29 06:28:37;;;;;;;7.28;4.47;;;;;;;17.01;88.03;98275.88;4974949;28;20045;-70
2023/07/29 06:31:02;;;;;;;8.07;4.55;;;;;;;16.99;88.27;98275.22;4973567;28;20053;-71
2023/07/29 06:33:29;;;;;;;6.15;4.60;;;;;;;16.98;87.85;98276.25;4975151;28;20037;-71
2023/07/29 06:35:54;;;;;;;5.43;4.30;;;;;;;16.97;88.11;98277.25;4941212;28;20054;-72
2023/07/29 06:38:21;;;;;;;5.95;4.50;;;;;;;16.94;87.97;98274.94;4956913;28;20049;-71
2023/07/29 06:40:50;;;;;;;7.07;4.47;;;;;;;16.91;87.89;98297.69;4974995;28;20041;-72
2023/07/29 06:43:15;;;;;;;7.00;4.43;;;;;;;16.84;88.02;98312.03;4974843;28;20053;-71
2023/07/29 06:45:42;;;;;;;6.80;4.80;;;;;;;16.80;88.08;98322.34;4973809;28;20053;-70
2023/07/29 06:48:08;;;;;;;5.03;4.28;;;;;;;16.74;88.23;98295.31;4975005;28;20049;-71
2023/07/29 06:50:34;;;;;;;5.68;4.63;;;;;;;16.68;88.40;98296.88;4973506;28;20060;-71
2023/07/29 06:52:59;;;;;;;6.57;4.85;;;;;;;16.66;88.87;98305.13;4974753;28;20053;-72
2023/07/29 06:55:25;;;;;;;6.43;4.18;;;;;;;16.63;89.27;98293.88;4977076;28;20408;-71
2023/07/29 07:00:46;;;;;;;7.38;4.85;;;;;;;16.58;89.54;98302.47;4976766;28;20046;-72
2023/07/29 07:03:11;;;;;;;7.30;4.95;;;;;;;16.55;89.82;98313.59;4978163;28;20045;-72
2023/07/29 07:05:38;;;;;;;7.53;5.38;;;;;;;16.56;89.81;98303.66;4978359;28;20069;-71
2023/07/29 07:08:03;;;;;;;7.20;5.63;;;;;;;16.55;90.34;98307.38;4976856;28;20404;-71
2023/07/29 07:10:29;;;;;;;11.23;5.93;;;;;;;16.55;90.27;98310.06;4960417;28;20076;-70
2023/07/29 07:12:54;;;;;;;7.47;5.95;;;;;;;16.52;90.78;98319.31;4976338;28;20050;-72
2023/07/29 07:15:23;;;;;;;7.45;5.80;;;;;;;16.51;90.88;98317.66;4976457;28;20049;-71
2023/07/29 07:17:48;;;;;;;10.60;6.78;;;;;;;16.50;90.71;98304.38;4977867;28;20500;-71
2023/07/29 07:20:13;;;;;;;9.35;6.88;;;;;;;16.47;91.06;98310.13;4977997;28;20045;-70
2023/07/29 07:22:39;;;;;;;10.10;7.57;;;;;;;16.44;91.21;98311.31;4977775;28;20046;-71
2023/07/29 07:25:11;;;;;;;7.90;5.95;;;;;;;16.40;91.66;98325.28;4943478;28;20057;-70
2023/07/29 07:27:37;;;;;;;7.35;5.47;;;;;;;16.34;91.78;98326.88;4976331;28;20053;-69
2023/07/29 07:30:03;;;;;;;8.63;6.38;;;;;;;16.33;91.76;98317.13;4977009;28;20058;-68
2023/07/29 07:32:31;;;;;;;9.95;6.63;;;;;;;16.33;92.04;98309.88;4997312;28;20048;-68
2023/07/29 07:34:59;;;;;;;10.05;5.80;;;;;;;16.37;92.41;98309.50;4997228;28;20037;-68
2023/07/29 07:37:28;;;;;;;10.30;5.88;;;;;;;16.41;92.37;98310.84;4976184;28;20057;-68
2023/07/29 07:39:54;;;;;;;9.25;6.65;;;;;;;16.41;92.76;98306.28;4977516;28;20042;-68
2023/07/29 07:42:24;;;;;;;10.52;6.40;;;;;;;16.47;93.12;98307.44;4976446;28;20053;-68
2023/07/29 07:44:53;;;;;;;11.02;6.53;;;;;;;16.51;93.11;98309.59;4960337;28;20593;-68
2023/07/29 07:47:19;;;;;;;8.38;5.93;;;;;;;16.54;93.34;98311.09;4976381;28;20050;-69
2023/07/29 07:49:46;;;;;;;8.25;5.90;;;;;;;16.62;93.06;98306.50;4977527;28;20530;-69
2023/07/29 07:52:13;;;;;;;7.38;5.75;;;;;;;16.76;93.41;98304.88;4959651;28;20550;-68
2023/07/29 07:55:03;;;;;;;8.25;5.00;;;;;;;16.89;93.54;98299.72;4987491;28;20048;-70
2023/07/29 07:57:29;;;;;;;5.85;4.68;;;;;;;16.98;93.25;98304.00;4979352;28;20052;-68
2023/07/29 07:59:54;;;;;;;7.43;4.40;;;;;;;17.00;92.68;98318.13;4996887;28;20045;-69
2023/07/29 08:02:25;;;;;;;8.23;4.13;;;;;;;17.06;92.19;98300.38;4996989;28;20061;-69
2023/07/29 08:04:50;;;;;;;5.07;3.80;;;;;;;17.07;91.87;98307.44;4996875;28;20044;-68
2023/07/29 08:07:15;;;;;;;4.60;3.60;;;;;;;17.06;91.48;98316.53;4995644;28;20056;-68
2023/07/29 08:09:41;;;;;;;5.38;4.00;;;;;;;17.08;91.24;98309.13;4996640;28;20042;-69
2023/07/29 08:12:06;;;;;;;7.20;4.15;;;;;;;17.13;91.08;98311.28;4996640;28;20407;-69
2023/07/29 08:14:33;;;;;;;4.32;3.38;;;;;;;17.14;90.92;98321.88;4996783;28;20041;-70
2023/07/29 08:16:58;;;;;;;5.47;3.65;;;;;;;17.18;90.45;98307.00;4979080;28;20049;-70
2023/07/29 08:19:24;;;;;;;5.38;3.70;;;;;;;17.24;90.29;98329.69;4978775;28;20042;-70
2023/07/29 08:21:52;;;;;;;4.75;3.90;;;;;;;17.30;90.13;98318.16;4996588;28;20136;-72
2023/07/29 08:24:19;;;;;;;5.13;3.85;;;;;;;17.31;90.23;98314.44;4978413;28;20084;-70
2023/07/29 08:26:45;;;;;;;5.38;4.00;;;;;;;17.28;89.93;98325.56;4996507;28;20045;-70
2023/07/29 08:29:11;;;;;;;8.27;4.40;;;;;;;17.25;89.76;98307.13;4996318;28;20400;-70
2023/07/29 08:31:36;;;;;;;5.65;4.50;;;;;;;17.16;90.19;98337.81;4975305;28;20061;-70
2023/07/29 08:34:01;;;;;;;5.82;5.18;;;;;;;17.02;89.64;98321.47;4976706;28;20041;-71
2023/07/29 08:36:27;;;;;;;6.57;5.07;;;;;;;16.96;89.88;98337.50;4976557;28;20053;-72
2023/07/29 08:38:52;;;;;;;10.02;5.40;;;;;;;16.94;90.09;98344.91;4976792;28;20871;-73
2023/07/29 08:41:37;;;;;;;10.68;5.72;;;;;;;17.11;90.54;98316.00;4976919;28;20046;-72
2023/07/29 08:44:22;;;;;;;8.90;5.60;;;;;;;17.22;91.35;98326.31;4991672;28;20053;-72
2023/07/29 08:46:48;;;;;;;9.90;6.00;;;;;;;17.27;91.23;98323.91;4976472;28;20052;-71
2023/07/29 08:49:18;;;;;;;7.95;5.50;;;;;;;17.35;90.93;98326.53;4975329;28;20041;-71
2023/07/29 08:52:11;;;;;;;5.78;4.43;;;;;;;17.39;90.75;98311.66;4976004;28;20817;-72
2023/07/29 08:54:37;;;;;;;6.53;4.85;;;;;;;17.35;89.94;98310.38;4976422;28;20050;-71
2023/07/29 08:57:05;;;;;;;5.13;4.15;;;;;;;17.32;89.66;98305.34;4975286;28;20054;-72
2023/07/29 09:00:00;;;;;;;9.40;4.93;;;;;;;17.48;89.59;98305.19;4976773;28;20062;-70
2023/07/29 09:02:26;;;;;;;5.13;4.45;;;;;;;17.31;89.24;98309.06;4976230;28;20056;-70
2023/07/29 09:04:53;;;;;;;6.28;5.00;;;;;;;17.31;88.90;98319.84;4976384;28;20500;-71
2023/07/29 09:07:20;;;;;;;6.25;5.13;;;;;;;17.28;88.49;98320.19;4976014;28;20053;-69
2023/07/29 09:10:13;;;;;;;7.53;4.63;;;;;;;17.36;88.59;98309.34;4958034;28;20637;-71
2023/07/29 09:12:40;;;;;;;6.30;4.97;;;;;;;17.16;88.18;98310.88;4974761;28;20511;-69
2023/07/29 09:15:06;;;;;;;5.57;4.78;;;;;;;17.10;88.33;98327.78;4941790;28;20052;-72
2023/07/29 09:17:33;;;;;;;6.40;5.07;;;;;;;17.06;88.30;98309.31;4957861;28;20049;-72
2023/07/29 09:19:58;;;;;;;6.65;5.03;;;;;;;17.07;88.57;98296.69;4974290;28;20042;-72
2023/07/29 09:22:25;;;;;;;6.40;5.18;;;;;;;17.14;88.62;98311.09;4975812;28;20061;-71
2023/07/29 09:24:51;;;;;;;7.50;4.63;;;;;;;17.21;88.81;98325.50;4957278;28;20052;-72
2023/07/29 09:27:31;;;;;;;6.85;4.75;;;;;;;17.36;88.52;98315.59;4974279;28;20049;-72
2023/07/29 09:29:57;;;;;;;6.30;4.80;;;;;;;17.38;88.25;98316.22;4974389;28;20073;-71
2023/07/29 09:32:28;;;;;;;5.55;4.78;;;;;;;17.48;88.14;98315.13;4967914;28;20053;-72
2023/07/29 09:34:55;;;;;;;7.40;5.47;;;;;;;17.59;87.64;98323.56;4958089;28;20068;-72
2023/07/29 09:37:24;;;;;;;8.48;5.50;;;;;;;17.69;87.19;98313.38;4975415;28;20039;-72
2023/07/29 09:39:50;;;;;;;6.60;4.72;;;;;;;17.81;86.45;98315.59;4924999;28;20447;-70
2023/07/29 09:45:24;;;;;;;8.20;5.40;;;;;;;17.97;85.39;98326.16;4975497;28;20037;-72
2023/07/29 09:47:54;;;;;;;7.85;5.47;;;;;;;17.93;85.62;98325.72;4941237;28;20061;-71
2023/07/29 09:50:27;;;;;;;9.40;5.32;;;;;;;17.86;85.09;98335.56;4957839;28;20083;-71
2023/07/29 09:52:55;;;;;;;6.18;4.72;;;;;;;17.76;85.17;98335.84;4957537;28;20081;-71
2023/07/29 09:55:26;;;;;;;7.35;5.22;;;;;;;17.64;85.11;98337.34;4957656;28;20072;-72
2023/07/29 09:58:01;;;;;;;9.23;5.38;;;;;;;17.60;85.24;98340.59;4941805;28;20053;-72
2023/07/29 10:00:28;;;;;;;7.27;5.10;;;;;;;17.54;85.44;98341.31;4974863;28;20046;-70
2023/07/29 10:05:46;;;;;;;7.97;5.63;;;;;;;17.80;86.09;98335.50;4972631;28;20518;-72
2023/07/29 10:08:13;;;;;;;6.40;4.80;;;;;;;17.97;85.75;98320.75;4974464;28;20038;-72
2023/07/29 10:13:33;;;;;;;11.20;5.38;;;;;;;18.38;85.33;98340.78;4974470;28;20042;-71
2023/07/29 10:16:02;;;;;;;7.30;5.40;;;;;;;18.53;84.44;98335.31;4974427;28;20381;-73
2023/07/29 10:19:18;;;;;;;8.18;5.60;;;;;;;18.73;83.72;98327.47;4974766;28;20057;-73
2023/07/29 10:21:52;;;;;;;7.45;5.72;;;;;;;18.87;83.21;98334.63;4974427;28;20785;-72
2023/07/29 10:24:29;;;;;;;8.82;6.18;;;;;;;18.98;82.73;98338.66;4974570;28;20045;-71
2023/07/29 10:27:23;;;;;;;9.90;5.70;;;;;;;18.96;82.32;98335.34;4974526;28;20042;-71
2023/07/29 10:29:51;;;;;;;6.43;5.13;;;;;;;18.94;81.72;98361.72;4976300;28;20049;-72
2023/07/29 10:32:24;;;;;;;8.15;5.28;;;;;;;18.92;81.21;98332.19;4944604;28;20062;-71
2023/07/29 10:34:54;;;;;;;6.55;4.85;;;;;;;18.84;80.99;98332.34;4977053;28;20068;-71
2023/07/29 10:37:23;;;;;;;7.57;4.82;;;;;;;18.89;80.88;98332.56;4960910;28;20057;-71
2023/07/29 10:39:54;;;;;;;8.88;5.22;;;;;;;18.96;80.86;98338.06;4986955;28;20041;-71
2023/07/29 10:42:22;;;;;;;7.45;4.65;;;;;;;18.95;80.81;98306.66;4993052;28;20049;-72
2023/07/29 10:44:52;;;;;;;4.90;4.40;;;;;;;18.95;80.28;98353.41;4957434;28;20049;-73
2023/07/29 10:50:23;;;;;;;5.72;4.60;;;;;;;19.01;79.64;98324.78;4961928;28;20045;-72
2023/07/29 10:52:56;;;;;;;6.22;4.43;;;;;;;19.04;79.51;98325.25;4961938;28;20057;-72
2023/07/29 10:55:38;;;;;;;7.20;5.05;;;;;;;19.09;79.65;98317.38;4979469;28;20496;-73
2023/07/29 10:58:12;;;;;;;7.57;4.93;;;;;;;19.05;79.15;98332.31;4978909;28;20068;-71
2023/07/29 11:00:46;;;;;;;6.43;4.82;;;;;;;19.07;78.87;98324.84;4978454;28;20731;-71
2023/07/29 11:03:14;;;;;;;6.05;4.78;;;;;;;19.03;78.79;98323.56;4978476;28;20424;-71
2023/07/29 11:05:45;;;;;;;10.43;4.80;;;;;;;19.02;78.52;98337.25;4960889;28;20045;-70
2023/07/29 11:08:29;;;;;;;7.28;5.38;;;;;;;19.15;78.85;98338.22;4978118;28;20520;-72
2023/07/29 11:11:01;;;;;;;9.07;4.90;;;;;;;19.11;78.82;98336.91;4961629;28;20046;-72
2023/07/29 11:13:28;;;;;;;8.80;6.43;;;;;;;19.20;78.53;98345.72;4978614;28;20416;-71
2023/07/29 11:15:59;;;;;;;5.82;4.75;;;;;;;19.26;78.68;98349.50;4976603;28;20041;-72
2023/07/29 11:18:31;;;;;;;8.32;5.30;;;;;;;19.37;78.28;98328.19;4960433;28;20050;-70
2023/07/29 11:20:59;;;;;;;7.68;5.47;;;;;;;19.42;78.39;98332.97;4977861;28;20052;-70
2023/07/29 11:23:38;;;;;;;8.80;4.80;;;;;;;19.53;78.46;98324.34;4960359;28;20060;-71
2023/07/29 11:26:07;;;;;;;6.50;4.80;;;;;;;19.58;78.50;98319.19;4960627;28;20045;-72
2023/07/29 11:28:42;;;;;;;8.43;6.00;;;;;;;19.66;78.02;98340.66;4977817;28;20042;-71
2023/07/29 11:31:08;;;;;;;6.80;4.80;;;;;;;19.69;77.52;98326.75;4961871;28;20050;-72
2023/07/29 11:33:39;;;;;;;7.97;4.95;;;;;;;19.75;77.39;98335.94;4978072;28;20129;-68
2023/07/29 11:36:16;;;;;;;7.20;4.47;;;;;;;19.78;76.84;98338.22;4959185;28;20053;-66
2023/07/29 11:38:43;;;;;;;8.55;4.65;;;;;;;19.78;76.18;98339.06;4971788;28;20520;-66
2023/07/29 11:41:35;;;;;;;9.43;5.80;;;;;;;19.76;76.49;98319.50;4978047;28;20053;-67
2023/07/29 11:44:03;;;;;;;6.38;4.80;;;;;;;19.65;76.03;98354.38;4944629;28;20054;-67
2023/07/29 11:46:29;;;;;;;6.32;4.65;;;;;;;19.52;76.30;98365.97;4978367;28;20049;-67
2023/07/29 11:48:57;;;;;;;9.80;5.40;;;;;;;19.37;76.73;98359.78;4959359;28;20069;-66
2023/07/29 11:51:25;;;;;;;6.65;4.55;;;;;;;19.26;77.27;98365.72;4958547;28;20050;-65
2023/07/29 11:54:21;;;;;;;7.57;4.93;;;;;;;19.14;77.78;98360.84;4977039;28;20738;-66
2023/07/29 11:56:52;;;;;;;5.97;4.65;;;;;;;19.09;78.26;98360.59;4959226;28;20042;-67
2023/07/29 11:59:20;;;;;;;11.00;4.80;;;;;;;19.07;78.75;98367.25;4959331;28;20050;-68
2023/07/29 12:01:47;;;;;;;7.55;5.13;;;;;;;19.01;79.12;98363.44;4976655;28;20113;-67